イヌヴィック の空港の天気 - METARとTAF

イヌヴィック空港 ( CYEV / YEV ) - カナダ ノースウエスト準州イヌヴィック
飛行場実況気象(Metar)
観測時間12/09 22:11 MST (12/10 05:11 UTC)
風向・風速西北西 2m/s
視程10km以上
天気現象弱い雪
全天の8割程度の雲 雲底高度 240m
全天を覆う雲 雲底高度 610m
気温-17℃
湿度77%
気圧990.2hPa
METARCYEV 100511Z 29003KT 15SM -SN BKN008 OVC020 M17/M20 A2921 RMK ST5SC3 SLP902
過去の天気等 Google飛行場航空写真 Wunderground天気予報

過去48時間のMETAR

飛行場予報(TAF)
発表時間: 12/09 17:43 MST (12/10 00:43 UTC)
予報対象時間: 9日18時 MST ~ 10日6時 MST
風向・風速不定 2m/s
視程10km以上
天気現象弱い雪
全天を覆う雲 雲底高度 460m
9日18時 MST ~ 10日6時 MST に一時的に
視程8050m
天気現象弱い雪
全天を覆う雲 雲底高度 240m
TAF AMD CYEV 100043Z 1001/1013 VRB03KT P6SM -SN OVC015
TEMPO 1001/1013 5SM -SN OVC008 RMK NXT FCST BY 100700Z